Saddle Brook, New Jersey
Current Conditions -  °F | °C
As of 8:20 PM on Tuesday 21 Oct 2014 (Local Time) from KTEB Reporting Station
Light Rain Light Rain  
Wind Chill: 57°   Ceiling: 2700
Heat Index: 57°   Visibility: 6mi
Dew Point: 54°   Wind: 8mph
Humidity: 88%   Direction: 340°NNW
Pressure: 29.88"   Gusts: NA
Location:  40.9°N, 74.08°W
Report Text: KTEB 220020Z 34007KT 6SM -RA BR SCT008 BKN027 OVC065 14/12 A2988 RMK AO2 P0001
Loading
Personal Weather Stations






























Interactive Weather Map
Tropical Storm Tracking
New forecast layout! Learn more

10-Day Weather Forecast

Advertisements
Track Severe Weather on mobile